Terminal Aerodrome Forecast
Issued by NWS

Home | Current Version | Previous Version | Text Only | Print | Product List | Glossary On
Versions: 1 2 3 4 5 6 7 8 9 10 11 12 13 14 15
705
FTUS43 KBIS 101732
TAFJMS
TAF
KJMS 101732Z 1018/1118 12009KT P6SM OVC070
     FM110400 09011G19KT 2SM -SN OVC025
     FM110700 08010KT 1SM -SN OVC010
     FM111100 07007KT 3SM -SN OVC015
     FM111300 06007KT P6SM OVC015
     FM111700 34007KT P6SM BKN040=

USA.gov is the U.S. government's official web portal to all federal, state and local government web resources and services.